Time;durP1;ratioP1;P1;durP2;ratioP2;P2;SDS_P1;SDS_P2;PMS_P1;PMS_P2;Temp;Humidity;BMP_temperature;BMP_pressure;BME280_temperature;BME280_humidity;BME280_pressure;Samples;Min_cycle;Max_cycle;Signal;HPM_P1;HPM_P2
2022/08/03 00:01:20;;;;;;;3.35;2.03;;;24.50;99.80;;;;;;5047152;28;20484;-71
2022/08/03 00:03:45;;;;;;;2.80;2.50;;;24.60;99.80;;;;;;5043357;28;20083;-71
2022/08/03 00:06:11;;;;;;;3.15;2.25;;;24.60;99.70;;;;;;5032938;28;20009;-71
2022/08/03 00:08:37;;;;;;;3.50;2.25;;;24.60;99.50;;;;;;5043038;28;20028;-71
2022/08/03 00:11:03;;;;;;;2.85;2.08;;;24.70;99.30;;;;;;5049356;28;20025;-70
2022/08/03 00:13:29;;;;;;;4.78;2.60;;;24.70;99.20;;;;;;5042248;28;20025;-72
2022/08/03 00:15:55;;;;;;;2.33;2.13;;;24.70;99.20;;;;;;5049098;28;20443;-71
2022/08/03 00:18:20;;;;;;;4.22;2.50;;;24.60;99.70;;;;;;5040758;28;20445;-71
2022/08/03 00:20:46;;;;;;;5.47;2.72;;;24.50;99.90;;;;;;5049317;28;20036;-71
2022/08/03 00:23:12;;;;;;;6.55;2.25;;;24.40;99.90;;;;;;5042606;28;20477;-71
2022/08/03 00:25:38;;;;;;;13.55;2.60;;;24.30;99.90;;;;;;5031921;28;20040;-71
2022/08/03 00:28:05;;;;;;;3.08;2.55;;;24.30;99.90;;;;;;5043330;28;20064;-71
2022/08/03 00:30:31;;;;;;;2.47;2.28;;;24.20;99.90;;;;;;5031469;28;20575;-70
2022/08/03 00:32:57;;;;;;;5.82;2.65;;;24.10;99.90;;;;;;5045539;28;20033;-71
2022/08/03 00:35:24;;;;;;;2.42;2.22;;;24.10;99.90;;;;;;5031580;28;20044;-70
2022/08/03 00:37:49;;;;;;;3.00;2.20;;;24.00;99.90;;;;;;5042333;28;20037;-70
2022/08/03 00:40:17;;;;;;;5.38;2.30;;;24.00;99.90;;;;;;5030243;28;20543;-71
2022/08/03 00:42:58;;;;;;;3.60;2.20;;;24.00;99.90;;;;;;5041843;28;20049;-70
2022/08/03 00:45:29;;;;;;;4.80;2.75;;;24.00;99.90;;;;;;5011449;28;20030;-71
2022/08/03 00:47:56;;;;;;;2.97;2.67;;;23.90;99.90;;;;;;5036851;28;20519;-71
2022/08/03 00:50:24;;;;;;;2.35;2.22;;;23.90;99.90;;;;;;5051025;28;20283;-71
2022/08/03 00:52:51;;;;;;;2.83;2.20;;;23.90;99.90;;;;;;5038509;28;20060;-71
2022/08/03 00:55:18;;;;;;;2.65;2.42;;;23.90;99.90;;;;;;5031486;28;20022;-72
2022/08/03 00:57:44;;;;;;;3.58;2.72;;;23.80;99.90;;;;;;5036470;28;20100;-71
2022/08/03 01:00:12;;;;;;;2.67;2.47;;;23.80;99.90;;;;;;5050603;28;20021;-71
2022/08/03 01:02:39;;;;;;;4.05;2.40;;;23.80;99.90;;;;;;5047707;28;20033;-72
2022/08/03 01:05:05;;;;;;;2.90;2.35;;;23.80;99.90;;;;;;5031993;28;20021;-71
2022/08/03 01:07:46;;;;;;;3.53;2.30;;;23.80;99.90;;;;;;5036331;28;20064;-71
2022/08/03 01:10:46;;;;;;;3.53;2.65;;;23.80;99.90;;;;;;5010003;28;20036;-72
2022/08/03 01:13:14;;;;;;;4.90;2.40;;;23.70;99.90;;;;;;5039894;28;20037;-72
2022/08/03 01:15:43;;;;;;;3.00;2.42;;;23.70;99.90;;;;;;5048648;28;20487;-71
2022/08/03 01:18:17;;;;;;;2.60;2.40;;;23.70;99.90;;;;;;5038038;28;20086;-71
2022/08/03 01:20:52;;;;;;;3.35;2.53;;;23.60;99.90;;;;;;5050265;28;20494;-71
2022/08/03 01:23:46;;;;;;;4.35;2.80;;;23.60;99.90;;;;;;5041666;28;20116;-72
2022/08/03 01:26:55;;;;;;;3.65;2.70;;;23.60;99.90;;;;;;5030981;28;20025;-72
2022/08/03 01:29:54;;;;;;;6.70;2.67;;;23.50;99.90;;;;;;5036848;28;20028;-71
2022/08/03 01:32:24;;;;;;;2.58;2.35;;;23.50;99.90;;;;;;5046448;28;20048;-71
2022/08/03 01:35:10;;;;;;;3.20;2.45;;;23.50;99.90;;;;;;5033774;28;20022;-71
2022/08/03 01:37:48;;;;;;;3.90;2.97;;;23.50;99.90;;;;;;5036066;28;20041;-71
2022/08/03 01:40:16;;;;;;;2.78;2.40;;;23.60;99.90;;;;;;5010962;28;20037;-71
2022/08/03 01:42:44;;;;;;;2.70;2.50;;;23.60;99.90;;;;;;5031814;28;20030;-71
2022/08/03 01:45:12;;;;;;;2.67;2.47;;;23.60;99.90;;;;;;5049068;28;20399;-71
2022/08/03 01:47:39;;;;;;;2.75;2.55;;;23.60;99.90;;;;;;5047318;28;20135;-71
2022/08/03 01:50:07;;;;;;;4.05;2.70;;;23.60;99.90;;;;;;5030879;28;20021;-71
2022/08/03 01:52:34;;;;;;;3.13;2.75;;;23.60;99.90;;;;;;5035880;28;20121;-72
2022/08/03 01:55:02;;;;;;;4.28;2.80;;;23.50;99.90;;;;;;5049180;28;20541;-71
2022/08/03 01:57:29;;;;;;;2.97;2.67;;;23.50;99.90;;;;;;5040379;28;20487;-71
2022/08/03 01:59:56;;;;;;;3.40;2.75;;;23.40;99.90;;;;;;5032574;28;20040;-71
2022/08/03 02:02:24;;;;;;;3.00;2.60;;;23.40;99.90;;;;;;5041192;28;20479;-71
2022/08/03 02:04:53;;;;;;;3.45;2.30;;;23.40;99.90;;;;;;5033495;28;20029;-71
2022/08/03 02:07:19;;;;;;;3.05;2.75;;;23.40;99.90;;;;;;5034674;28;20025;-70
2022/08/03 02:09:49;;;;;;;5.25;3.03;;;23.40;99.90;;;;;;5046767;28;20033;-71
2022/08/03 02:12:17;;;;;;;2.60;2.40;;;23.40;99.90;;;;;;5042299;28;20133;-70
2022/08/03 02:14:45;;;;;;;3.55;3.03;;;23.40;99.90;;;;;;5045044;28;20087;-70
2022/08/03 02:17:12;;;;;;;2.50;2.35;;;23.40;99.90;;;;;;5046795;28;20040;-70
2022/08/03 02:19:39;;;;;;;4.13;2.83;;;23.40;99.90;;;;;;5035023;28;20029;-70
2022/08/03 02:22:09;;;;;;;2.78;2.40;;;23.30;99.90;;;;;;5037398;28;20024;-71
2022/08/03 02:24:35;;;;;;;2.97;2.67;;;23.30;99.90;;;;;;5050282;28;20033;-70
2022/08/03 02:27:22;;;;;;;2.83;2.53;;;23.30;99.90;;;;;;5040876;28;20025;-71
2022/08/03 02:29:52;;;;;;;2.70;2.50;;;23.30;99.90;;;;;;5050433;28;20120;-71
2022/08/03 02:32:30;;;;;;;7.20;2.35;;;23.30;99.90;;;;;;5050135;28;20043;-70
2022/08/03 02:34:58;;;;;;;2.78;2.53;;;23.30;99.90;;;;;;5035812;28;20468;-71
2022/08/03 02:37:27;;;;;;;2.72;2.53;;;23.30;99.90;;;;;;5038871;28;20041;-72
2022/08/03 02:39:59;;;;;;;3.25;2.67;;;23.30;99.90;;;;;;5050821;28;20029;-71
2022/08/03 02:42:27;;;;;;;3.20;2.50;;;23.40;99.90;;;;;;5044233;28;20076;-71
2022/08/03 02:44:55;;;;;;;3.30;2.58;;;23.40;99.90;;;;;;5051178;28;20067;-71
2022/08/03 02:47:22;;;;;;;3.72;2.72;;;23.40;99.90;;;;;;5044671;28;20045;-71
2022/08/03 02:49:50;;;;;;;3.90;3.08;;;23.40;99.90;;;;;;5050060;28;20036;-71
2022/08/03 02:52:17;;;;;;;3.22;2.60;;;23.40;99.90;;;;;;5040978;28;20471;-72
2022/08/03 02:54:46;;;;;;;2.95;2.67;;;23.40;99.90;;;;;;5049634;28;20036;-71
2022/08/03 02:57:14;;;;;;;4.10;2.55;;;23.50;99.90;;;;;;5042396;28;20024;-71
2022/08/03 02:59:41;;;;;;;2.60;2.40;;;23.50;99.90;;;;;;5049006;28;20403;-71
2022/08/03 03:02:08;;;;;;;3.15;2.65;;;23.50;99.90;;;;;;5049588;28;20036;-71
2022/08/03 03:04:34;;;;;;;3.22;2.90;;;23.40;99.90;;;;;;5038507;28;20072;-71
2022/08/03 03:07:00;;;;;;;3.22;2.65;;;23.40;99.90;;;;;;5038663;28;20032;-71
2022/08/03 03:09:27;;;;;;;3.22;2.67;;;23.40;99.90;;;;;;5046842;28;20488;-71
2022/08/03 03:11:55;;;;;;;3.05;2.75;;;23.40;99.90;;;;;;5047932;28;20131;-72
2022/08/03 03:14:21;;;;;;;2.70;2.50;;;23.40;99.90;;;;;;5046068;28;20025;-71
2022/08/03 03:16:48;;;;;;;4.03;2.72;;;23.40;99.90;;;;;;5048667;28;20021;-71
2022/08/03 03:19:15;;;;;;;3.15;2.63;;;23.30;99.90;;;;;;5044816;28;20025;-71
2022/08/03 03:21:43;;;;;;;2.63;2.42;;;23.40;99.90;;;;;;5049472;28;20047;-71
2022/08/03 03:24:09;;;;;;;3.13;2.63;;;23.40;99.90;;;;;;5035731;28;20021;-72
2022/08/03 03:26:35;;;;;;;3.42;2.80;;;23.40;99.90;;;;;;5044358;28;20025;-71
2022/08/03 03:29:02;;;;;;;3.20;2.90;;;23.40;99.90;;;;;;5043811;28;20028;-70
2022/08/03 03:31:28;;;;;;;2.80;2.55;;;23.40;99.90;;;;;;5049252;28;20026;-71
2022/08/03 03:33:58;;;;;;;2.80;2.60;;;23.40;99.90;;;;;;5043220;28;20037;-72
2022/08/03 03:36:24;;;;;;;2.80;2.60;;;23.50;99.90;;;;;;5035389;28;20026;-71
2022/08/03 03:38:50;;;;;;;3.80;2.78;;;23.50;99.90;;;;;;5042920;28;20053;-71
2022/08/03 03:41:16;;;;;;;4.28;3.15;;;23.50;99.90;;;;;;5049007;28;20400;-71
2022/08/03 03:43:42;;;;;;;3.60;2.65;;;23.50;99.90;;;;;;5043455;28;20479;-71
2022/08/03 03:46:13;;;;;;;5.53;2.95;;;23.50;99.90;;;;;;5050102;28;20053;-72
2022/08/03 03:48:39;;;;;;;2.85;2.55;;;23.50;99.90;;;;;;5035812;28;20026;-72
2022/08/03 03:51:05;;;;;;;3.78;2.47;;;23.60;99.90;;;;;;5033288;28;20021;-72
2022/08/03 03:53:31;;;;;;;4.35;2.75;;;23.50;99.90;;;;;;5042653;28;20130;-72
2022/08/03 03:55:57;;;;;;;3.33;2.67;;;23.60;99.90;;;;;;5047202;28;20559;-73
2022/08/03 03:58:22;;;;;;;2.85;2.60;;;23.60;99.90;;;;;;5041252;28;20033;-72
2022/08/03 04:00:48;;;;;;;3.05;2.80;;;23.60;99.90;;;;;;5050661;28;20484;-72
2022/08/03 04:03:14;;;;;;;2.90;2.65;;;23.70;99.90;;;;;;5045796;28;20036;-72
2022/08/03 04:11:11;;;;;;;2.90;2.60;;;23.80;99.90;;;;;;5048562;28;20032;-72
2022/08/03 04:13:40;;;;;;;2.65;2.45;;;23.80;99.90;;;;;;5036545;28;20510;-73
2022/08/03 04:16:11;;;;;;;3.42;2.45;;;23.80;99.90;;;;;;5032985;28;20026;-73
2022/08/03 04:18:39;;;;;;;4.93;2.90;;;23.90;99.90;;;;;;5036527;28;20061;-72
2022/08/03 04:21:09;;;;;;;4.30;2.90;;;23.90;99.90;;;;;;5032800;28;20025;-72
2022/08/03 04:23:37;;;;;;;2.63;2.42;;;23.90;99.90;;;;;;5042878;28;20068;-72
2022/08/03 04:26:08;;;;;;;3.35;2.20;;;23.80;99.90;;;;;;5044239;28;20018;-73
2022/08/03 04:28:36;;;;;;;4.47;2.40;;;23.90;99.90;;;;;;5042503;28;20029;-72
2022/08/03 04:31:05;;;;;;;3.88;2.80;;;23.90;99.90;;;;;;5049036;28;20021;-72
2022/08/03 04:33:33;;;;;;;2.85;2.47;;;24.00;99.90;;;;;;5043245;28;20175;-73
2022/08/03 04:36:03;;;;;;;3.20;2.10;;;24.00;99.90;;;;;;5032519;28;21410;-73
2022/08/03 04:38:31;;;;;;;3.55;2.38;;;24.10;99.90;;;;;;5040251;28;20415;-72
2022/08/03 04:40:59;;;;;;;9.32;2.83;;;24.10;99.90;;;;;;5049790;28;20054;-73
2022/08/03 04:43:26;;;;;;;4.93;2.67;;;24.20;99.90;;;;;;5040839;28;20098;-74
2022/08/03 04:45:53;;;;;;;8.23;2.67;;;24.20;99.90;;;;;;5049876;28;20021;-72
2022/08/03 04:48:19;;;;;;;4.43;2.70;;;24.20;99.90;;;;;;5040147;28;20020;-72
2022/08/03 04:50:46;;;;;;;5.43;2.67;;;24.20;99.90;;;;;;5050269;28;20025;-73
2022/08/03 04:53:12;;;;;;;2.65;2.40;;;24.20;99.90;;;;;;5039182;28;20412;-73
2022/08/03 04:55:38;;;;;;;4.43;2.70;;;24.20;99.90;;;;;;5031399;28;20022;-73
2022/08/03 04:58:05;;;;;;;2.58;2.38;;;24.20;99.90;;;;;;5039136;28;20399;-73
2022/08/03 05:00:31;;;;;;;2.70;2.50;;;24.20;99.90;;;;;;5051046;28;20077;-73
2022/08/03 05:02:56;;;;;;;2.60;2.40;;;24.20;99.90;;;;;;5045864;28;20111;-73
2022/08/03 05:05:22;;;;;;;2.80;2.28;;;24.20;99.90;;;;;;5031009;28;20034;-73
2022/08/03 05:07:48;;;;;;;2.78;2.58;;;24.20;99.90;;;;;;5036439;28;20396;-73
2022/08/03 05:10:15;;;;;;;2.85;2.50;;;24.30;99.90;;;;;;5050855;28;20021;-73
2022/08/03 05:12:40;;;;;;;2.85;2.53;;;24.30;99.90;;;;;;5039537;28;20037;-73
2022/08/03 05:15:07;;;;;;;2.42;2.22;;;24.30;99.90;;;;;;5049983;28;20070;-73
2022/08/03 05:17:35;;;;;;;2.90;2.17;;;24.30;99.90;;;;;;5040618;28;20060;-72
2022/08/03 05:20:03;;;;;;;4.20;2.70;;;24.20;99.90;;;;;;5048220;28;20079;-73
2022/08/03 05:22:28;;;;;;;3.13;2.78;;;24.30;99.90;;;;;;5041169;28;20080;-73
2022/08/03 05:24:54;;;;;;;2.72;2.33;;;24.20;99.90;;;;;;5048307;28;20522;-74
2022/08/03 05:27:20;;;;;;;2.92;2.30;;;24.30;99.90;;;;;;5038695;28;20040;-72
2022/08/03 05:29:49;;;;;;;3.15;2.53;;;24.30;99.90;;;;;;5047112;28;20526;-73
2022/08/03 05:32:16;;;;;;;2.53;2.15;;;24.40;99.90;;;;;;5045317;28;20036;-73
2022/08/03 05:34:43;;;;;;;2.92;2.63;;;24.40;99.90;;;;;;5034810;28;20381;-73
2022/08/03 05:37:09;;;;;;;5.18;2.00;;;24.40;99.90;;;;;;5036175;28;20026;-72
2022/08/03 05:39:35;;;;;;;3.40;2.47;;;24.50;99.90;;;;;;5045431;28;20343;-73
2022/08/03 05:42:02;;;;;;;3.80;2.50;;;24.50;99.90;;;;;;5044641;28;20159;-73
2022/08/03 05:44:27;;;;;;;3.08;2.63;;;24.50;99.90;;;;;;5044814;28;20071;-72
2022/08/03 05:46:53;;;;;;;2.40;2.20;;;24.60;99.90;;;;;;5044204;28;20025;-73
2022/08/03 05:49:19;;;;;;;4.32;2.40;;;24.60;99.90;;;;;;5043318;28;20017;-72
2022/08/03 05:51:45;;;;;;;3.05;2.28;;;24.60;99.90;;;;;;5046580;28;20033;-73
2022/08/03 05:54:11;;;;;;;2.30;2.10;;;24.70;99.90;;;;;;5042249;28;20098;-72
2022/08/03 05:56:39;;;;;;;4.35;2.63;;;24.70;99.90;;;;;;5043420;28;20029;-72
2022/08/03 05:59:05;;;;;;;2.53;2.30;;;24.80;99.90;;;;;;5041606;28;20037;-72
2022/08/03 06:01:32;;;;;;;4.47;2.35;;;24.80;99.90;;;;;;5046253;28;20044;-73
2022/08/03 06:03:58;;;;;;;8.68;2.22;;;25.00;99.90;;;;;;5040568;28;20052;-73
2022/08/03 06:06:24;;;;;;;2.92;2.30;;;25.00;99.90;;;;;;5036984;28;20104;-72
2022/08/03 06:08:49;;;;;;;7.43;2.55;;;25.10;99.90;;;;;;5045395;28;20105;-72
2022/08/03 06:11:15;;;;;;;2.20;2.00;;;25.20;99.90;;;;;;5050744;28;20112;-72
2022/08/03 06:13:42;;;;;;;4.22;2.55;;;25.20;99.90;;;;;;5045524;28;20036;-72
2022/08/03 06:16:08;;;;;;;4.80;2.22;;;25.30;99.90;;;;;;5051162;28;20025;-72
2022/08/03 06:18:34;;;;;;;3.72;2.25;;;25.40;99.90;;;;;;5044802;28;20169;-72
2022/08/03 06:21:00;;;;;;;2.90;2.05;;;25.50;99.90;;;;;;5052008;28;21034;-78
2022/08/03 06:23:26;;;;;;;3.50;2.38;;;25.50;99.90;;;;;;5043837;28;20021;-72
2022/08/03 06:25:52;;;;;;;5.63;2.40;;;25.60;99.90;;;;;;5049151;28;20373;-72
2022/08/03 06:28:18;;;;;;;3.78;2.00;;;25.60;99.90;;;;;;5042861;28;20047;-72
2022/08/03 06:30:44;;;;;;;2.65;2.28;;;25.70;99.90;;;;;;5052819;28;20031;-73
2022/08/03 06:33:10;;;;;;;2.80;2.40;;;25.80;99.90;;;;;;5044773;28;20051;-72
2022/08/03 06:35:36;;;;;;;7.40;2.50;;;25.80;99.90;;;;;;5033822;28;20104;-72
2022/08/03 06:38:01;;;;;;;3.10;2.25;;;25.90;99.90;;;;;;5040971;28;20488;-72
2022/08/03 06:40:31;;;;;;;3.70;2.00;;;26.00;99.90;;;;;;5053563;28;20067;-71
2022/08/03 06:42:59;;;;;;;5.20;1.92;;;26.10;99.90;;;;;;5041363;28;20029;-72
2022/08/03 06:45:25;;;;;;;3.80;2.00;;;26.10;99.90;;;;;;5053709;28;20021;-73
2022/08/03 06:48:05;;;;;;;5.38;2.20;;;26.10;99.90;;;;;;5041183;28;20575;-72
2022/08/03 06:50:33;;;;;;;6.05;2.30;;;26.20;99.90;;;;;;5041899;28;20029;-72
2022/08/03 06:53:01;;;;;;;2.50;2.30;;;26.30;99.90;;;;;;5040506;28;20080;-71
2022/08/03 06:55:26;;;;;;;6.20;2.15;;;26.30;99.90;;;;;;5051626;28;20021;-73
2022/08/03 06:57:52;;;;;;;2.28;2.00;;;26.40;99.90;;;;;;5039210;28;20056;-72
2022/08/03 07:00:18;;;;;;;2.67;1.80;;;26.50;99.90;;;;;;5053237;28;20507;-72
2022/08/03 07:02:44;;;;;;;2.10;1.50;;;26.50;99.90;;;;;;5048020;28;20462;-72
2022/08/03 07:05:11;;;;;;;2.00;1.83;;;26.60;99.90;;;;;;5033551;28;20049;-73
2022/08/03 07:07:37;;;;;;;3.90;1.90;;;26.70;99.90;;;;;;5038358;28;20082;-73
2022/08/03 07:10:04;;;;;;;2.15;1.70;;;26.70;99.80;;;;;;5051662;28;20021;-73
2022/08/03 07:12:30;;;;;;;4.95;1.65;;;26.80;99.60;;;;;;5045114;28;20614;-72
2022/08/03 07:14:57;;;;;;;5.38;1.98;;;26.90;99.20;;;;;;5034008;28;20421;-72
2022/08/03 07:17:23;;;;;;;4.10;1.80;;;27.00;98.50;;;;;;5038329;28;20105;-71
2022/08/03 07:19:48;;;;;;;3.72;1.80;;;27.10;98.50;;;;;;5049631;28;20033;-71
2022/08/03 07:22:14;;;;;;;3.58;1.80;;;27.20;98.50;;;;;;5045021;28;20507;-71
2022/08/03 07:24:43;;;;;;;3.35;1.77;;;27.30;98.40;;;;;;5048597;28;20392;-72
2022/08/03 07:27:09;;;;;;;4.40;1.70;;;27.30;97.70;;;;;;5042152;28;20388;-75
2022/08/03 07:29:35;;;;;;;4.38;1.80;;;27.40;97.80;;;;;;5047367;28;20033;-71
2022/08/03 07:32:03;;;;;;;2.50;1.85;;;27.40;97.60;;;;;;5047529;28;20038;-72
2022/08/03 07:34:29;;;;;;;2.33;1.63;;;27.50;97.50;;;;;;5038831;28;20028;-72
2022/08/03 07:36:55;;;;;;;2.15;1.60;;;27.50;97.30;;;;;;5036745;28;20040;-71
2022/08/03 07:39:20;;;;;;;4.15;1.90;;;27.60;97.80;;;;;;5044292;28;20049;-72
2022/08/03 07:41:48;;;;;;;4.70;1.90;;;27.60;97.80;;;;;;5048546;28;20029;-71
2022/08/03 07:44:14;;;;;;;1.60;1.50;;;27.60;97.20;;;;;;5044463;28;20025;-72
2022/08/03 07:46:40;;;;;;;2.67;1.63;;;27.70;97.20;;;;;;5048809;28;20082;-72
2022/08/03 07:49:06;;;;;;;1.90;1.80;;;27.80;97.00;;;;;;5042336;28;20115;-73
2022/08/03 07:51:31;;;;;;;4.30;1.80;;;27.90;96.00;;;;;;5048504;28;20036;-74
2022/08/03 07:53:57;;;;;;;2.95;1.65;;;28.00;96.50;;;;;;5043487;28;20029;-74
2022/08/03 07:56:26;;;;;;;2.42;1.88;;;28.00;96.30;;;;;;5044294;28;20375;-73
2022/08/03 07:58:53;;;;;;;1.73;1.63;;;28.00;96.20;;;;;;5031181;28;20492;-74
2022/08/03 08:01:19;;;;;;;3.00;1.75;;;28.10;95.90;;;;;;5034090;28;20373;-74
2022/08/03 08:03:45;;;;;;;4.13;1.95;;;28.20;96.00;;;;;;5042441;28;20488;-73
2022/08/03 08:06:11;;;;;;;3.50;1.77;;;28.20;95.60;;;;;;5033093;28;20040;-73
2022/08/03 08:08:38;;;;;;;2.88;1.60;;;28.30;94.90;;;;;;5043073;28;20021;-73
2022/08/03 08:11:04;;;;;;;3.92;1.80;;;28.30;95.70;;;;;;5048223;28;20025;-74
2022/08/03 08:13:30;;;;;;;2.13;2.00;;;28.30;95.20;;;;;;5042157;28;20036;-74
2022/08/03 08:15:55;;;;;;;3.10;1.90;;;28.40;95.20;;;;;;5050458;28;20021;-71
2022/08/03 08:18:22;;;;;;;2.75;1.60;;;28.40;95.40;;;;;;5041109;28;20017;-72
2022/08/03 08:20:49;;;;;;;3.70;2.10;;;28.40;95.40;;;;;;5050570;28;20021;-74
2022/08/03 08:23:14;;;;;;;4.50;1.73;;;28.50;95.60;;;;;;5040442;28;20187;-72
2022/08/03 08:25:40;;;;;;;3.60;2.10;;;28.50;95.20;;;;;;5047345;28;20025;-72
2022/08/03 08:28:06;;;;;;;2.00;1.80;;;28.60;95.70;;;;;;5042998;28;20056;-72
2022/08/03 08:30:32;;;;;;;3.22;1.88;;;28.70;95.30;;;;;;5031540;28;20488;-73
2022/08/03 08:32:58;;;;;;;7.75;2.22;;;28.80;95.00;;;;;;5045730;28;20083;-72
2022/08/03 08:35:24;;;;;;;5.82;2.20;;;28.80;95.40;;;;;;5031508;28;20049;-71
2022/08/03 08:37:50;;;;;;;4.57;2.00;;;28.90;95.40;;;;;;5037142;28;20065;-72
2022/08/03 08:40:19;;;;;;;2.67;2.13;;;29.00;94.70;;;;;;5051346;28;20029;-72
2022/08/03 08:42:46;;;;;;;5.57;1.90;;;29.10;94.20;;;;;;5042816;28;20025;-73
2022/08/03 08:45:14;;;;;;;1.70;1.60;;;29.10;94.40;;;;;;5010375;28;20029;-72
2022/08/03 08:47:44;;;;;;;8.98;1.90;;;29.10;94.70;;;;;;5033331;28;20083;-72
2022/08/03 08:50:10;;;;;;;3.42;2.10;;;29.10;94.70;;;;;;5050963;28;20021;-74
2022/08/03 08:52:40;;;;;;;2.72;1.70;;;29.20;94.10;;;;;;5040614;28;20041;-75
2022/08/03 08:55:07;;;;;;;2.80;1.70;;;29.20;94.00;;;;;;5048954;28;20391;-74
2022/08/03 08:57:41;;;;;;;16.85;1.90;;;29.30;94.50;;;;;;5035800;28;20187;-73
2022/08/03 09:00:11;;;;;;;2.00;1.90;;;29.30;93.90;;;;;;5050630;28;20024;-74
2022/08/03 09:02:37;;;;;;;6.07;2.03;;;29.40;94.20;;;;;;5045705;28;20391;-74
2022/08/03 09:05:03;;;;;;;2.58;2.08;;;29.40;94.00;;;;;;5032190;28;20036;-74
2022/08/03 09:07:29;;;;;;;3.42;2.00;;;29.40;93.70;;;;;;5039696;28;20035;-75
2022/08/03 09:09:55;;;;;;;6.30;2.03;;;29.50;93.90;;;;;;5032032;28;20112;-74
2022/08/03 09:12:21;;;;;;;2.15;1.75;;;29.50;93.40;;;;;;5036170;28;20404;-74
2022/08/03 09:14:46;;;;;;;2.15;1.70;;;29.60;93.80;;;;;;5047633;28;20070;-73
2022/08/03 09:17:12;;;;;;;2.17;1.60;;;29.70;93.40;;;;;;5042122;28;20584;-74
2022/08/03 09:19:38;;;;;;;3.35;2.05;;;29.70;93.10;;;;;;5046161;28;20029;-75
2022/08/03 09:22:16;;;;;;;9.35;2.20;;;29.80;93.60;;;;;;5043223;28;20033;-74
2022/08/03 09:24:58;;;;;;;4.97;2.10;;;29.80;93.30;;;;;;5046633;28;20029;-73
2022/08/03 09:27:23;;;;;;;6.63;1.80;;;29.90;93.50;;;;;;5038128;28;20468;-73
2022/08/03 09:29:51;;;;;;;1.90;1.80;;;29.90;93.10;;;;;;5046388;28;20082;-72
2022/08/03 09:32:21;;;;;;;2.33;1.90;;;30.00;92.90;;;;;;5047130;28;20021;-72
2022/08/03 09:34:48;;;;;;;3.42;2.00;;;30.00;92.30;;;;;;5034223;28;20032;-73
2022/08/03 09:37:16;;;;;;;1.60;1.50;;;30.10;92.00;;;;;;5036741;28;20471;-73
2022/08/03 09:39:42;;;;;;;1.73;1.63;;;30.10;91.90;;;;;;5050715;28;20049;-73
2022/08/03 09:42:12;;;;;;;4.90;1.80;;;30.10;91.60;;;;;;5046530;28;20602;-73
2022/08/03 09:44:41;;;;;;;1.60;1.50;;;30.20;91.30;;;;;;5050158;28;20013;-73
2022/08/03 09:47:09;;;;;;;2.45;1.63;;;30.30;90.90;;;;;;5046386;28;20099;-73
2022/08/03 09:49:40;;;;;;;1.88;1.58;;;30.20;91.20;;;;;;5048182;28;20483;-73
2022/08/03 09:52:17;;;;;;;1.80;1.70;;;30.20;91.80;;;;;;5047491;28;20087;-73
2022/08/03 09:54:43;;;;;;;3.10;1.40;;;30.30;91.40;;;;;;5050451;28;20032;-73
2022/08/03 09:57:26;;;;;;;3.53;1.88;;;30.40;91.50;;;;;;5042590;28;20038;-73
2022/08/03 10:00:02;;;;;;;2.20;1.90;;;30.50;90.60;;;;;;5051779;28;20096;-74
2022/08/03 10:02:28;;;;;;;2.40;1.67;;;30.50;90.70;;;;;;5050936;28;20508;-74
2022/08/03 10:04:54;;;;;;;1.80;1.70;;;30.60;91.40;;;;;;5037035;28;20168;-74
2022/08/03 10:07:21;;;;;;;1.63;1.52;;;30.70;91.50;;;;;;5037690;28;20369;-74
2022/08/03 10:10:00;;;;;;;1.63;1.52;;;30.80;90.90;;;;;;5050610;28;20447;-74
2022/08/03 10:12:26;;;;;;;1.98;1.58;;;31.00;90.20;;;;;;5045013;28;20046;-73
2022/08/03 10:14:52;;;;;;;1.63;1.40;;;31.10;90.10;;;;;;5051324;28;20020;-74
2022/08/03 10:17:19;;;;;;;1.75;1.65;;;31.20;88.80;;;;;;5045760;28;20480;-73
2022/08/03 10:19:46;;;;;;;2.05;1.45;;;31.20;86.20;;;;;;5049241;28;20032;-73
2022/08/03 10:22:25;;;;;;;2.95;1.60;;;31.40;85.00;;;;;;5046522;28;20412;-74
2022/08/03 10:25:06;;;;;;;1.45;1.30;;;31.40;84.80;;;;;;5051176;28;20529;-74
2022/08/03 10:27:37;;;;;;;3.88;1.27;;;31.60;84.40;;;;;;5039080;28;20025;-74
2022/08/03 10:30:06;;;;;;;1.55;1.42;;;31.60;84.20;;;;;;5051831;28;20040;-74
2022/08/03 10:32:43;;;;;;;1.63;1.33;;;31.70;83.80;;;;;;5050312;28;20033;-74
2022/08/03 10:35:15;;;;;;;1.55;1.33;;;31.80;82.60;;;;;;5032626;28;20032;-75
2022/08/03 10:37:42;;;;;;;1.63;1.35;;;31.90;82.60;;;;;;5039126;28;20392;-74
2022/08/03 10:40:13;;;;;;;1.73;1.50;;;32.00;81.50;;;;;;5053449;28;20021;-75
2022/08/03 10:42:41;;;;;;;2.17;1.42;;;32.10;82.20;;;;;;5042633;28;20394;-74
2022/08/03 10:45:16;;;;;;;1.30;1.30;;;32.20;82.10;;;;;;5052909;28;20044;-75
2022/08/03 10:47:42;;;;;;;2.53;1.30;;;32.20;80.80;;;;;;5040739;28;20061;-74
2022/08/03 10:50:10;;;;;;;1.40;1.17;;;32.30;79.30;;;;;;5052757;28;20078;-73
2022/08/03 10:52:52;;;;;;;3.00;1.08;;;32.40;78.00;;;;;;5042628;28;20054;-74
2022/08/03 10:58:35;;;;;;;1.30;1.20;;;32.60;78.20;;;;;;5044330;28;20049;-74
2022/08/03 11:01:01;;;;;;;2.13;1.30;;;32.70;78.60;;;;;;5034346;28;20095;-74
2022/08/03 11:03:27;;;;;;;2.90;1.25;;;33.00;78.50;;;;;;5046191;28;20113;-75
2022/08/03 11:06:12;;;;;;;1.38;1.27;;;33.20;77.00;;;;;;5034044;28;20494;-75
2022/08/03 11:08:38;;;;;;;2.67;1.50;;;33.30;78.80;;;;;;5044490;28;20494;-74
2022/08/03 11:11:16;;;;;;;2.83;1.60;;;33.40;79.50;;;;;;5050620;28;20021;-75
2022/08/03 11:14:03;;;;;;;4.57;1.73;;;33.30;82.00;;;;;;5038572;28;20040;-75
2022/08/03 11:16:34;;;;;;;5.13;2.20;;;33.00;83.00;;;;;;5036596;28;20144;-74
2022/08/03 11:19:05;;;;;;;3.23;1.90;;;32.80;88.80;;;;;;5044270;28;20063;-74
2022/08/03 11:21:49;;;;;;;2.60;1.80;;;32.50;86.40;;;;;;5049656;28;20607;-74
2022/08/03 11:24:39;;;;;;;1.80;1.70;;;32.10;90.70;;;;;;5037501;28;20036;-74
2022/08/03 11:27:20;;;;;;;3.25;2.00;;;31.60;92.70;;;;;;5042652;28;20021;-74
2022/08/03 11:30:10;;;;;;;1.73;1.60;;;31.60;93.60;;;;;;5049210;28;20035;-74
2022/08/03 11:32:39;;;;;;;3.47;1.80;;;31.50;93.70;;;;;;5048978;28;20403;-76
2022/08/03 11:35:09;;;;;;;2.75;2.00;;;31.60;94.90;;;;;;5033816;28;20021;-74
2022/08/03 11:37:56;;;;;;;2.08;1.52;;;31.40;96.20;;;;;;5036494;28;20075;-75
2022/08/03 11:40:44;;;;;;;3.42;1.80;;;31.20;93.50;;;;;;5011549;28;20037;-74
2022/08/03 11:43:29;;;;;;;2.35;1.85;;;30.80;95.20;;;;;;5046626;28;20053;-74
2022/08/03 11:45:59;;;;;;;2.47;1.85;;;30.80;98.10;;;;;;5032057;28;20025;-73
2022/08/03 11:48:32;;;;;;;2.95;2.13;;;30.70;95.80;;;;;;5042157;28;20379;-73
2022/08/03 11:51:02;;;;;;;3.35;1.90;;;30.70;97.10;;;;;;5050587;28;20108;-73
2022/08/03 11:53:28;;;;;;;2.95;1.73;;;30.70;97.20;;;;;;5042222;28;20563;-74
2022/08/03 11:55:58;;;;;;;5.72;1.88;;;30.60;91.90;;;;;;5029840;28;20069;-74
2022/08/03 11:58:25;;;;;;;4.55;1.85;;;30.40;93.90;;;;;;5040121;28;20025;-73
2022/08/03 12:00:51;;;;;;;8.38;1.45;;;30.40;94.40;;;;;;5049136;28;20029;-74
2022/08/03 12:03:18;;;;;;;2.38;1.50;;;30.50;93.10;;;;;;5044627;28;20075;-73
2022/08/03 12:05:52;;;;;;;4.53;1.88;;;30.60;93.20;;;;;;5032046;28;20427;-74
2022/08/03 12:08:27;;;;;;;2.17;1.70;;;30.50;93.20;;;;;;5038309;28;20113;-72
2022/08/03 12:10:54;;;;;;;1.75;1.65;;;30.60;92.20;;;;;;5032849;28;20021;-81
2022/08/03 12:13:20;;;;;;;4.53;1.85;;;31.20;92.40;;;;;;5040947;28;20040;-76
2022/08/03 12:15:54;;;;;;;9.25;1.70;;;31.90;90.10;;;;;;5050809;28;20024;-80
2022/08/03 12:18:21;;;;;;;4.10;1.40;;;32.80;90.10;;;;;;5046129;28;20053;-75
2022/08/03 12:20:48;;;;;;;2.72;1.55;;;33.90;90.40;;;;;;5030608;28;20029;-74
2022/08/03 12:23:14;;;;;;;4.97;1.55;;;34.70;87.20;;;;;;5040797;28;20526;-79
2022/08/03 12:25:41;;;;;;;7.22;1.60;;;35.00;86.70;;;;;;5048007;28;20029;-79
2022/08/03 12:28:21;;;;;;;3.97;1.80;;;34.70;87.10;;;;;;5042792;28;20070;-76
2022/08/03 12:30:51;;;;;;;15.07;2.20;;;34.80;86.20;;;;;;5031518;28;20476;-78
2022/08/03 12:33:19;;;;;;;4.70;2.00;;;35.40;88.80;;;;;;5043842;28;20044;-77
2022/08/03 12:35:46;;;;;;;8.23;1.65;;;35.90;86.00;;;;;;5031661;28;20088;-79
2022/08/03 12:38:12;;;;;;;3.88;1.75;;;35.70;87.20;;;;;;5039876;28;20098;-77
2022/08/03 12:40:38;;;;;;;3.85;1.50;;;36.50;86.70;;;;;;5031689;28;20104;-76
2022/08/03 12:43:12;;;;;;;4.55;1.45;;;37.10;86.80;;;;;;5039334;28;20172;-79
2022/08/03 12:45:38;;;;;;;3.00;1.55;;;37.70;86.30;;;;;;5051537;28;20028;-79
2022/08/03 12:48:09;;;;;;;2.30;1.45;;;38.40;82.90;;;;;;5038773;28;20025;-73
2022/08/03 12:50:37;;;;;;;3.17;1.30;;;38.20;81.50;;;;;;5051420;28;20137;-79
2022/08/03 12:53:06;;;;;;;5.30;1.83;;;38.30;83.60;;;;;;5037333;28;20045;-77
2022/08/03 12:55:32;;;;;;;3.45;1.70;;;38.50;82.70;;;;;;5048618;28;20025;-79
2022/08/03 12:58:09;;;;;;;2.95;1.50;;;38.30;84.60;;;;;;5038345;28;20144;-78
2022/08/03 13:00:36;;;;;;;3.88;1.70;;;38.20;82.00;;;;;;5051013;28;20040;-77
2022/08/03 13:03:06;;;;;;;6.38;1.60;;;38.80;83.10;;;;;;5043807;28;20102;-77